sensor_id;sensor_type;location;lat;lon;timestamp;P1;durP1;ratioP1;P2;durP2;ratioP2
55268;SDS011;41131;42.990;21.954;2023-03-11T00:01:02;32.10;;;26.63;;
55268;SDS011;41131;42.990;21.954;2023-03-11T00:03:28;31.65;;;26.00;;
55268;SDS011;41131;42.990;21.954;2023-03-11T00:05:54;28.15;;;24.30;;
55268;SDS011;41131;42.990;21.954;2023-03-11T00:08:23;35.80;;;25.30;;
55268;SDS011;41131;42.990;21.954;2023-03-11T00:10:53;30.40;;;22.55;;
55268;SDS011;41131;42.990;21.954;2023-03-11T00:13:20;26.73;;;22.13;;
55268;SDS011;41131;42.990;21.954;2023-03-11T00:15:47;26.02;;;18.83;;
55268;SDS011;41131;42.990;21.954;2023-03-11T00:18:14;24.52;;;17.58;;
55268;SDS011;41131;42.990;21.954;2023-03-11T00:20:41;27.02;;;20.27;;
55268;SDS011;41131;42.990;21.954;2023-03-11T00:23:07;29.00;;;22.45;;
55268;SDS011;41131;42.990;21.954;2023-03-11T00:25:35;23.75;;;20.55;;
55268;SDS011;41131;42.990;21.954;2023-03-11T00:28:02;31.58;;;22.45;;
55268;SDS011;41131;42.990;21.954;2023-03-11T00:30:28;22.45;;;18.98;;
55268;SDS011;41131;42.990;21.954;2023-03-11T00:32:55;29.05;;;23.30;;
55268;SDS011;41131;42.990;21.954;2023-03-11T00:35:23;39.30;;;30.17;;
55268;SDS011;41131;42.990;21.954;2023-03-11T00:37:51;44.42;;;33.50;;
55268;SDS011;41131;42.990;21.954;2023-03-11T00:40:18;35.10;;;28.35;;
55268;SDS011;41131;42.990;21.954;2023-03-11T00:42:44;51.63;;;37.95;;
55268;SDS011;41131;42.990;21.954;2023-03-11T00:45:11;59.33;;;44.75;;
55268;SDS011;41131;42.990;21.954;2023-03-11T00:47:37;57.97;;;41.60;;
55268;SDS011;41131;42.990;21.954;2023-03-11T00:50:04;57.53;;;41.72;;
55268;SDS011;41131;42.990;21.954;2023-03-11T00:52:30;57.08;;;40.45;;
55268;SDS011;41131;42.990;21.954;2023-03-11T00:54:59;73.40;;;50.53;;
55268;SDS011;41131;42.990;21.954;2023-03-11T00:57:25;70.85;;;51.42;;
55268;SDS011;41131;42.990;21.954;2023-03-11T00:59:53;66.85;;;46.17;;
55268;SDS011;41131;42.990;21.954;2023-03-11T01:02:19;38.88;;;27.02;;
55268;SDS011;41131;42.990;21.954;2023-03-11T01:04:45;34.00;;;24.75;;
55268;SDS011;41131;42.990;21.954;2023-03-11T01:07:11;28.95;;;19.70;;
55268;SDS011;41131;42.990;21.954;2023-03-11T01:09:37;22.35;;;15.50;;
55268;SDS011;41131;42.990;21.954;2023-03-11T01:12:04;22.33;;;13.77;;
55268;SDS011;41131;42.990;21.954;2023-03-11T01:14:30;15.75;;;10.73;;
55268;SDS011;41131;42.990;21.954;2023-03-11T01:16:56;18.58;;;12.23;;
55268;SDS011;41131;42.990;21.954;2023-03-11T01:19:22;21.50;;;13.93;;
55268;SDS011;41131;42.990;21.954;2023-03-11T01:21:48;22.17;;;15.45;;
55268;SDS011;41131;42.990;21.954;2023-03-11T01:24:14;19.30;;;13.20;;
55268;SDS011;41131;42.990;21.954;2023-03-11T01:26:40;21.33;;;14.70;;
55268;SDS011;41131;42.990;21.954;2023-03-11T01:29:06;19.05;;;10.18;;
55268;SDS011;41131;42.990;21.954;2023-03-11T01:31:32;18.60;;;10.65;;
55268;SDS011;41131;42.990;21.954;2023-03-11T01:33:58;17.02;;;11.00;;
55268;SDS011;41131;42.990;21.954;2023-03-11T01:36:24;21.02;;;13.00;;
55268;SDS011;41131;42.990;21.954;2023-03-11T01:38:50;18.60;;;12.18;;
55268;SDS011;41131;42.990;21.954;2023-03-11T01:41:16;16.35;;;11.57;;
55268;SDS011;41131;42.990;21.954;2023-03-11T01:46:13;15.35;;;10.10;;
55268;SDS011;41131;42.990;21.954;2023-03-11T01:48:39;18.15;;;10.70;;
55268;SDS011;41131;42.990;21.954;2023-03-11T01:51:06;15.10;;;10.63;;
55268;SDS011;41131;42.990;21.954;2023-03-11T01:53:33;16.52;;;10.80;;
55268;SDS011;41131;42.990;21.954;2023-03-11T01:56:00;14.95;;;8.32;;
55268;SDS011;41131;42.990;21.954;2023-03-11T01:58:27;9.45;;;5.78;;
55268;SDS011;41131;42.990;21.954;2023-03-11T02:00:55;8.13;;;5.82;;
55268;SDS011;41131;42.990;21.954;2023-03-11T02:03:23;8.48;;;4.93;;
55268;SDS011;41131;42.990;21.954;2023-03-11T02:05:51;10.40;;;5.53;;
55268;SDS011;41131;42.990;21.954;2023-03-11T02:08:17;11.68;;;6.55;;
55268;SDS011;41131;42.990;21.954;2023-03-11T02:10:43;10.30;;;6.53;;
55268;SDS011;41131;42.990;21.954;2023-03-11T02:13:10;14.23;;;7.18;;
55268;SDS011;41131;42.990;21.954;2023-03-11T02:15:36;14.05;;;7.30;;
55268;SDS011;41131;42.990;21.954;2023-03-11T02:18:03;14.10;;;8.65;;
55268;SDS011;41131;42.990;21.954;2023-03-11T02:23:14;10.32;;;6.82;;
55268;SDS011;41131;42.990;21.954;2023-03-11T02:25:47;6.50;;;5.10;;
55268;SDS011;41131;42.990;21.954;2023-03-11T02:28:16;7.78;;;5.28;;
55268;SDS011;41131;42.990;21.954;2023-03-11T02:30:43;17.42;;;8.18;;
55268;SDS011;41131;42.990;21.954;2023-03-11T02:33:09;14.93;;;7.93;;
55268;SDS011;41131;42.990;21.954;2023-03-11T02:35:37;12.18;;;6.75;;
55268;SDS011;41131;42.990;21.954;2023-03-11T02:38:03;8.70;;;5.45;;
55268;SDS011;41131;42.990;21.954;2023-03-11T02:40:32;11.80;;;6.63;;
55268;SDS011;41131;42.990;21.954;2023-03-11T02:43:00;13.75;;;8.23;;
55268;SDS011;41131;42.990;21.954;2023-03-11T02:45:27;16.63;;;9.57;;
55268;SDS011;41131;42.990;21.954;2023-03-11T02:47:56;19.70;;;10.05;;
55268;SDS011;41131;42.990;21.954;2023-03-11T02:50:23;12.57;;;7.95;;
55268;SDS011;41131;42.990;21.954;2023-03-11T02:52:50;13.02;;;7.65;;
55268;SDS011;41131;42.990;21.954;2023-03-11T02:55:16;14.98;;;9.00;;
55268;SDS011;41131;42.990;21.954;2023-03-11T02:57:44;11.35;;;6.40;;
55268;SDS011;41131;42.990;21.954;2023-03-11T03:00:10;9.57;;;5.93;;
55268;SDS011;41131;42.990;21.954;2023-03-11T03:02:40;17.60;;;10.93;;
55268;SDS011;41131;42.990;21.954;2023-03-11T03:05:06;20.10;;;11.82;;
55268;SDS011;41131;42.990;21.954;2023-03-11T03:07:32;24.60;;;13.40;;
55268;SDS011;41131;42.990;21.954;2023-03-11T03:09:58;17.13;;;10.55;;
55268;SDS011;41131;42.990;21.954;2023-03-11T03:12:25;10.77;;;6.57;;
55268;SDS011;41131;42.990;21.954;2023-03-11T03:14:51;7.97;;;5.20;;
55268;SDS011;41131;42.990;21.954;2023-03-11T03:17:17;8.40;;;4.70;;
55268;SDS011;41131;42.990;21.954;2023-03-11T03:19:43;8.77;;;4.75;;
55268;SDS011;41131;42.990;21.954;2023-03-11T03:22:09;7.72;;;5.10;;
55268;SDS011;41131;42.990;21.954;2023-03-11T03:24:35;14.15;;;6.95;;
55268;SDS011;41131;42.990;21.954;2023-03-11T03:27:01;10.15;;;6.30;;
55268;SDS011;41131;42.990;21.954;2023-03-11T03:29:27;10.60;;;7.45;;
55268;SDS011;41131;42.990;21.954;2023-03-11T03:31:53;13.07;;;9.40;;
55268;SDS011;41131;42.990;21.954;2023-03-11T03:34:19;17.67;;;9.55;;
55268;SDS011;41131;42.990;21.954;2023-03-11T03:36:45;16.33;;;8.10;;
55268;SDS011;41131;42.990;21.954;2023-03-11T03:39:11;12.25;;;7.15;;
55268;SDS011;41131;42.990;21.954;2023-03-11T03:41:37;16.48;;;8.23;;
55268;SDS011;41131;42.990;21.954;2023-03-11T03:44:03;21.05;;;8.75;;
55268;SDS011;41131;42.990;21.954;2023-03-11T03:46:30;17.45;;;9.55;;
55268;SDS011;41131;42.990;21.954;2023-03-11T03:48:56;22.23;;;11.57;;
55268;SDS011;41131;42.990;21.954;2023-03-11T03:51:22;21.92;;;11.00;;
55268;SDS011;41131;42.990;21.954;2023-03-11T03:53:48;18.73;;;10.85;;
55268;SDS011;41131;42.990;21.954;2023-03-11T03:56:15;19.67;;;11.02;;
55268;SDS011;41131;42.990;21.954;2023-03-11T03:58:42;17.63;;;10.02;;
55268;SDS011;41131;42.990;21.954;2023-03-11T04:01:08;18.05;;;9.95;;
55268;SDS011;41131;42.990;21.954;2023-03-11T04:03:35;16.95;;;9.38;;
55268;SDS011;41131;42.990;21.954;2023-03-11T04:08:32;15.35;;;9.80;;
55268;SDS011;41131;42.990;21.954;2023-03-11T04:10:58;17.50;;;10.07;;
55268;SDS011;41131;42.990;21.954;2023-03-11T04:13:24;19.02;;;9.88;;
55268;SDS011;41131;42.990;21.954;2023-03-11T04:15:50;16.25;;;9.75;;
55268;SDS011;41131;42.990;21.954;2023-03-11T04:18:17;18.35;;;10.40;;
55268;SDS011;41131;42.990;21.954;2023-03-11T04:20:43;22.00;;;16.38;;
55268;SDS011;41131;42.990;21.954;2023-03-11T04:23:09;8.05;;;4.82;;
55268;SDS011;41131;42.990;21.954;2023-03-11T04:25:37;55.33;;;25.63;;
55268;SDS011;41131;42.990;21.954;2023-03-11T04:28:03;103.88;;;50.28;;
55268;SDS011;41131;42.990;21.954;2023-03-11T04:30:29;28.85;;;17.38;;
55268;SDS011;41131;42.990;21.954;2023-03-11T04:32:55;14.68;;;10.02;;
55268;SDS011;41131;42.990;21.954;2023-03-11T04:35:21;13.07;;;6.57;;
55268;SDS011;41131;42.990;21.954;2023-03-11T04:37:47;13.90;;;9.52;;
55268;SDS011;41131;42.990;21.954;2023-03-11T04:40:13;16.88;;;8.20;;
55268;SDS011;41131;42.990;21.954;2023-03-11T04:42:39;13.85;;;8.75;;
55268;SDS011;41131;42.990;21.954;2023-03-11T04:45:05;11.52;;;7.65;;
55268;SDS011;41131;42.990;21.954;2023-03-11T04:47:32;10.13;;;6.65;;
55268;SDS011;41131;42.990;21.954;2023-03-11T04:49:58;10.63;;;6.32;;
55268;SDS011;41131;42.990;21.954;2023-03-11T04:52:24;7.68;;;5.82;;
55268;SDS011;41131;42.990;21.954;2023-03-11T04:54:50;13.35;;;6.70;;
55268;SDS011;41131;42.990;21.954;2023-03-11T04:57:16;9.90;;;6.50;;
55268;SDS011;41131;42.990;21.954;2023-03-11T04:59:42;8.48;;;5.93;;
55268;SDS011;41131;42.990;21.954;2023-03-11T05:02:08;7.88;;;5.72;;
55268;SDS011;41131;42.990;21.954;2023-03-11T05:04:34;9.02;;;5.13;;
55268;SDS011;41131;42.990;21.954;2023-03-11T05:07:00;11.73;;;5.32;;
55268;SDS011;41131;42.990;21.954;2023-03-11T05:09:26;7.43;;;5.25;;
55268;SDS011;41131;42.990;21.954;2023-03-11T05:11:53;7.80;;;5.80;;
55268;SDS011;41131;42.990;21.954;2023-03-11T05:14:19;9.07;;;6.13;;
55268;SDS011;41131;42.990;21.954;2023-03-11T05:16:45;8.90;;;5.22;;
55268;SDS011;41131;42.990;21.954;2023-03-11T05:19:11;8.45;;;4.95;;
55268;SDS011;41131;42.990;21.954;2023-03-11T05:21:55;9.70;;;5.70;;
55268;SDS011;41131;42.990;21.954;2023-03-11T05:24:21;8.80;;;6.03;;
55268;SDS011;41131;42.990;21.954;2023-03-11T05:26:49;8.82;;;6.38;;
55268;SDS011;41131;42.990;21.954;2023-03-11T05:29:16;8.48;;;5.60;;
55268;SDS011;41131;42.990;21.954;2023-03-11T05:31:43;8.07;;;4.82;;
55268;SDS011;41131;42.990;21.954;2023-03-11T05:34:09;7.47;;;4.40;;
55268;SDS011;41131;42.990;21.954;2023-03-11T05:36:35;7.00;;;4.60;;
55268;SDS011;41131;42.990;21.954;2023-03-11T05:39:01;7.30;;;5.45;;
55268;SDS011;41131;42.990;21.954;2023-03-11T05:41:27;7.28;;;5.10;;
55268;SDS011;41131;42.990;21.954;2023-03-11T05:43:53;9.50;;;5.68;;
55268;SDS011;41131;42.990;21.954;2023-03-11T05:46:20;8.07;;;6.07;;
55268;SDS011;41131;42.990;21.954;2023-03-11T05:48:46;7.15;;;3.50;;
55268;SDS011;41131;42.990;21.954;2023-03-11T05:51:12;6.35;;;4.50;;
55268;SDS011;41131;42.990;21.954;2023-03-11T05:53:41;13.70;;;11.43;;
55268;SDS011;41131;42.990;21.954;2023-03-11T05:56:12;12.93;;;8.15;;
55268;SDS011;41131;42.990;21.954;2023-03-11T05:58:38;8.45;;;6.32;;
55268;SDS011;41131;42.990;21.954;2023-03-11T06:01:11;17.02;;;12.68;;
55268;SDS011;41131;42.990;21.954;2023-03-11T06:03:37;12.60;;;9.57;;
55268;SDS011;41131;42.990;21.954;2023-03-11T06:06:05;12.57;;;8.35;;
55268;SDS011;41131;42.990;21.954;2023-03-11T06:08:31;9.30;;;5.88;;
55268;SDS011;41131;42.990;21.954;2023-03-11T06:11:01;11.38;;;6.22;;
55268;SDS011;41131;42.990;21.954;2023-03-11T06:13:27;10.15;;;5.82;;
55268;SDS011;41131;42.990;21.954;2023-03-11T06:15:53;11.52;;;5.70;;
55268;SDS011;41131;42.990;21.954;2023-03-11T06:18:19;12.60;;;5.95;;
55268;SDS011;41131;42.990;21.954;2023-03-11T06:20:45;8.13;;;5.20;;
55268;SDS011;41131;42.990;21.954;2023-03-11T06:23:11;11.75;;;8.43;;
55268;SDS011;41131;42.990;21.954;2023-03-11T06:25:37;9.13;;;6.38;;
55268;SDS011;41131;42.990;21.954;2023-03-11T06:28:03;12.25;;;9.43;;
55268;SDS011;41131;42.990;21.954;2023-03-11T06:30:29;24.90;;;17.67;;
55268;SDS011;41131;42.990;21.954;2023-03-11T06:32:55;34.85;;;21.52;;
55268;SDS011;41131;42.990;21.954;2023-03-11T06:35:21;172.50;;;134.48;;
55268;SDS011;41131;42.990;21.954;2023-03-11T06:37:47;140.60;;;101.03;;
55268;SDS011;41131;42.990;21.954;2023-03-11T06:40:14;55.45;;;35.42;;
55268;SDS011;41131;42.990;21.954;2023-03-11T06:42:40;21.83;;;14.75;;
55268;SDS011;41131;42.990;21.954;2023-03-11T06:45:06;21.25;;;14.48;;
55268;SDS011;41131;42.990;21.954;2023-03-11T06:47:32;15.38;;;12.10;;
55268;SDS011;41131;42.990;21.954;2023-03-11T06:49:58;13.23;;;10.05;;
55268;SDS011;41131;42.990;21.954;2023-03-11T06:52:30;17.97;;;12.27;;
55268;SDS011;41131;42.990;21.954;2023-03-11T06:54:56;12.15;;;9.43;;
55268;SDS011;41131;42.990;21.954;2023-03-11T06:57:22;13.98;;;8.45;;
55268;SDS011;41131;42.990;21.954;2023-03-11T06:59:48;14.02;;;9.57;;
55268;SDS011;41131;42.990;21.954;2023-03-11T07:02:14;26.27;;;15.98;;
55268;SDS011;41131;42.990;21.954;2023-03-11T07:04:42;30.58;;;21.38;;
55268;SDS011;41131;42.990;21.954;2023-03-11T07:07:08;26.20;;;15.82;;
55268;SDS011;41131;42.990;21.954;2023-03-11T07:09:34;17.15;;;12.35;;
55268;SDS011;41131;42.990;21.954;2023-03-11T07:12:00;14.00;;;9.00;;
55268;SDS011;41131;42.990;21.954;2023-03-11T07:14:26;12.95;;;7.70;;
55268;SDS011;41131;42.990;21.954;2023-03-11T07:16:52;9.75;;;6.20;;
55268;SDS011;41131;42.990;21.954;2023-03-11T07:19:18;12.70;;;8.15;;
55268;SDS011;41131;42.990;21.954;2023-03-11T07:21:44;10.10;;;7.60;;
55268;SDS011;41131;42.990;21.954;2023-03-11T07:24:11;18.10;;;11.55;;
55268;SDS011;41131;42.990;21.954;2023-03-11T07:26:38;12.85;;;7.05;;
55268;SDS011;41131;42.990;21.954;2023-03-11T07:29:04;9.00;;;5.63;;
55268;SDS011;41131;42.990;21.954;2023-03-11T07:31:31;11.63;;;6.85;;
55268;SDS011;41131;42.990;21.954;2023-03-11T07:33:58;19.35;;;9.85;;
55268;SDS011;41131;42.990;21.954;2023-03-11T07:36:24;15.07;;;8.93;;
55268;SDS011;41131;42.990;21.954;2023-03-11T07:38:57;15.98;;;10.20;;
55268;SDS011;41131;42.990;21.954;2023-03-11T07:41:24;12.93;;;9.38;;
55268;SDS011;41131;42.990;21.954;2023-03-11T07:43:52;14.82;;;9.80;;
55268;SDS011;41131;42.990;21.954;2023-03-11T07:46:19;19.70;;;11.05;;
55268;SDS011;41131;42.990;21.954;2023-03-11T07:48:47;13.93;;;9.30;;
55268;SDS011;41131;42.990;21.954;2023-03-11T07:51:26;11.88;;;7.32;;
55268;SDS011;41131;42.990;21.954;2023-03-11T07:53:53;17.67;;;9.48;;
55268;SDS011;41131;42.990;21.954;2023-03-11T07:56:19;14.90;;;9.48;;
55268;SDS011;41131;42.990;21.954;2023-03-11T07:58:47;35.10;;;23.50;;
55268;SDS011;41131;42.990;21.954;2023-03-11T08:01:18;28.35;;;17.10;;
55268;SDS011;41131;42.990;21.954;2023-03-11T08:03:45;49.85;;;29.33;;
55268;SDS011;41131;42.990;21.954;2023-03-11T08:06:15;23.55;;;17.98;;
55268;SDS011;41131;42.990;21.954;2023-03-11T08:08:42;28.80;;;20.08;;
55268;SDS011;41131;42.990;21.954;2023-03-11T08:11:08;26.67;;;19.85;;
55268;SDS011;41131;42.990;21.954;2023-03-11T08:13:34;31.50;;;18.90;;
55268;SDS011;41131;42.990;21.954;2023-03-11T08:16:04;23.35;;;16.77;;
55268;SDS011;41131;42.990;21.954;2023-03-11T08:18:31;22.50;;;10.68;;
55268;SDS011;41131;42.990;21.954;2023-03-11T08:20:57;31.80;;;17.02;;
55268;SDS011;41131;42.990;21.954;2023-03-11T08:23:23;19.92;;;11.10;;
55268;SDS011;41131;42.990;21.954;2023-03-11T08:25:49;23.48;;;12.15;;
55268;SDS011;41131;42.990;21.954;2023-03-11T08:28:15;58.08;;;33.88;;
55268;SDS011;41131;42.990;21.954;2023-03-11T08:30:41;65.15;;;31.35;;
55268;SDS011;41131;42.990;21.954;2023-03-11T08:33:07;85.10;;;39.75;;
55268;SDS011;41131;42.990;21.954;2023-03-11T08:35:33;117.13;;;66.85;;
55268;SDS011;41131;42.990;21.954;2023-03-11T08:38:02;48.13;;;25.13;;
55268;SDS011;41131;42.990;21.954;2023-03-11T08:40:28;65.95;;;35.90;;
55268;SDS011;41131;42.990;21.954;2023-03-11T08:42:54;166.73;;;97.68;;
55268;SDS011;41131;42.990;21.954;2023-03-11T08:45:21;59.92;;;32.05;;
55268;SDS011;41131;42.990;21.954;2023-03-11T08:47:47;32.60;;;13.45;;
55268;SDS011;41131;42.990;21.954;2023-03-11T08:50:15;28.52;;;11.30;;
55268;SDS011;41131;42.990;21.954;2023-03-11T08:52:41;29.48;;;12.05;;
55268;SDS011;41131;42.990;21.954;2023-03-11T08:55:07;35.08;;;17.20;;
55268;SDS011;41131;42.990;21.954;2023-03-11T08:57:38;27.35;;;13.35;;
55268;SDS011;41131;42.990;21.954;2023-03-11T09:00:04;40.50;;;16.88;;
55268;SDS011;41131;42.990;21.954;2023-03-11T09:02:32;42.42;;;17.38;;
55268;SDS011;41131;42.990;21.954;2023-03-11T09:04:58;36.72;;;17.33;;
55268;SDS011;41131;42.990;21.954;2023-03-11T09:07:24;41.38;;;15.25;;
55268;SDS011;41131;42.990;21.954;2023-03-11T09:09:50;20.88;;;9.98;;
55268;SDS011;41131;42.990;21.954;2023-03-11T09:12:16;19.83;;;7.82;;
55268;SDS011;41131;42.990;21.954;2023-03-11T09:14:43;26.20;;;13.88;;
55268;SDS011;41131;42.990;21.954;2023-03-11T09:17:09;24.27;;;9.88;;
55268;SDS011;41131;42.990;21.954;2023-03-11T09:19:39;28.70;;;9.68;;
55268;SDS011;41131;42.990;21.954;2023-03-11T09:22:05;24.42;;;7.63;;
55268;SDS011;41131;42.990;21.954;2023-03-11T09:24:31;22.15;;;7.50;;
55268;SDS011;41131;42.990;21.954;2023-03-11T09:26:58;21.08;;;8.18;;
55268;SDS011;41131;42.990;21.954;2023-03-11T09:29:24;55.72;;;26.63;;
55268;SDS011;41131;42.990;21.954;2023-03-11T09:31:50;22.30;;;9.13;;
55268;SDS011;41131;42.990;21.954;2023-03-11T09:34:16;65.10;;;34.20;;
55268;SDS011;41131;42.990;21.954;2023-03-11T09:36:42;20.75;;;9.43;;
55268;SDS011;41131;42.990;21.954;2023-03-11T09:39:09;22.05;;;8.30;;
55268;SDS011;41131;42.990;21.954;2023-03-11T09:41:44;18.40;;;6.13;;
55268;SDS011;41131;42.990;21.954;2023-03-11T09:51:41;20.88;;;9.93;;
55268;SDS011;41131;42.990;21.954;2023-03-11T09:54:11;18.42;;;8.20;;
55268;SDS011;41131;42.990;21.954;2023-03-11T09:56:38;33.38;;;9.60;;
55268;SDS011;41131;42.990;21.954;2023-03-11T09:59:08;22.35;;;10.70;;
55268;SDS011;41131;42.990;21.954;2023-03-11T10:01:44;15.23;;;7.30;;
55268;SDS011;41131;42.990;21.954;2023-03-11T10:04:34;19.67;;;9.88;;
55268;SDS011;41131;42.990;21.954;2023-03-11T10:06:58;21.58;;;8.13;;
55268;SDS011;41131;42.990;21.954;2023-03-11T10:09:36;14.20;;;5.90;;
55268;SDS011;41131;42.990;21.954;2023-03-11T10:17:07;17.73;;;7.07;;
55268;SDS011;41131;42.990;21.954;2023-03-11T10:19:40;15.63;;;5.85;;
55268;SDS011;41131;42.990;21.954;2023-03-11T10:22:10;16.48;;;5.47;;
55268;SDS011;41131;42.990;21.954;2023-03-11T10:32:45;20.83;;;10.00;;
55268;SDS011;41131;42.990;21.954;2023-03-11T10:35:14;19.13;;;9.77;;
55268;SDS011;41131;42.990;21.954;2023-03-11T10:37:43;19.45;;;9.95;;
55268;SDS011;41131;42.990;21.954;2023-03-11T10:40:17;15.82;;;7.93;;
55268;SDS011;41131;42.990;21.954;2023-03-11T10:42:44;12.50;;;6.65;;
55268;SDS011;41131;42.990;21.954;2023-03-11T10:45:13;13.43;;;6.80;;
55268;SDS011;41131;42.990;21.954;2023-03-11T10:47:40;17.90;;;8.35;;
55268;SDS011;41131;42.990;21.954;2023-03-11T10:50:08;30.70;;;24.02;;
55268;SDS011;41131;42.990;21.954;2023-03-11T10:53:03;20.95;;;7.47;;
55268;SDS011;41131;42.990;21.954;2023-03-11T10:55:28;29.75;;;17.33;;
55268;SDS011;41131;42.990;21.954;2023-03-11T10:58:02;18.52;;;6.97;;
55268;SDS011;41131;42.990;21.954;2023-03-11T11:00:29;35.78;;;20.33;;
55268;SDS011;41131;42.990;21.954;2023-03-11T11:02:56;45.75;;;22.45;;
55268;SDS011;41131;42.990;21.954;2023-03-11T11:07:50;36.33;;;22.05;;
55268;SDS011;41131;42.990;21.954;2023-03-11T11:10:21;25.35;;;15.57;;
55268;SDS011;41131;42.990;21.954;2023-03-11T11:12:57;24.63;;;13.27;;
55268;SDS011;41131;42.990;21.954;2023-03-11T11:17:51;22.35;;;13.73;;
55268;SDS011;41131;42.990;21.954;2023-03-11T11:20:20;18.80;;;11.75;;
55268;SDS011;41131;42.990;21.954;2023-03-11T11:22:47;17.08;;;7.15;;
55268;SDS011;41131;42.990;21.954;2023-03-11T11:28:02;12.88;;;8.43;;
55268;SDS011;41131;42.990;21.954;2023-03-11T11:30:29;14.00;;;6.85;;
55268;SDS011;41131;42.990;21.954;2023-03-11T11:32:55;21.08;;;10.93;;
55268;SDS011;41131;42.990;21.954;2023-03-11T11:35:23;12.60;;;7.53;;
55268;SDS011;41131;42.990;21.954;2023-03-11T11:37:51;16.42;;;10.52;;
55268;SDS011;41131;42.990;21.954;2023-03-11T11:40:20;31.13;;;20.73;;
55268;SDS011;41131;42.990;21.954;2023-03-11T11:43:11;19.70;;;11.77;;
55268;SDS011;41131;42.990;21.954;2023-03-11T11:51:12;13.80;;;9.27;;
55268;SDS011;41131;42.990;21.954;2023-03-11T11:56:16;18.17;;;11.70;;
55268;SDS011;41131;42.990;21.954;2023-03-11T11:58:42;12.85;;;8.38;;
55268;SDS011;41131;42.990;21.954;2023-03-11T12:11:20;27.40;;;17.23;;
55268;SDS011;41131;42.990;21.954;2023-03-11T12:14:01;14.93;;;11.68;;
55268;SDS011;41131;42.990;21.954;2023-03-11T12:27:21;13.45;;;8.43;;
55268;SDS011;41131;42.990;21.954;2023-03-11T12:29:48;10.90;;;7.75;;
55268;SDS011;41131;42.990;21.954;2023-03-11T12:32:22;7.07;;;5.15;;
55268;SDS011;41131;42.990;21.954;2023-03-11T12:34:54;9.15;;;5.57;;
55268;SDS011;41131;42.990;21.954;2023-03-11T12:37:25;12.25;;;7.53;;
55268;SDS011;41131;42.990;21.954;2023-03-11T12:39:51;14.23;;;8.13;;
55268;SDS011;41131;42.990;21.954;2023-03-11T12:42:20;11.25;;;6.20;;
55268;SDS011;41131;42.990;21.954;2023-03-11T12:44:49;8.35;;;6.35;;
55268;SDS011;41131;42.990;21.954;2023-03-11T12:47:16;9.18;;;5.93;;
55268;SDS011;41131;42.990;21.954;2023-03-11T12:49:47;14.00;;;6.93;;
55268;SDS011;41131;42.990;21.954;2023-03-11T12:52:27;8.50;;;6.38;;
55268;SDS011;41131;42.990;21.954;2023-03-11T12:59:53;15.27;;;9.60;;
55268;SDS011;41131;42.990;21.954;2023-03-11T13:07:45;24.88;;;19.55;;
55268;SDS011;41131;42.990;21.954;2023-03-11T13:10:13;16.40;;;11.75;;
55268;SDS011;41131;42.990;21.954;2023-03-11T13:15:23;23.08;;;13.52;;
55268;SDS011;41131;42.990;21.954;2023-03-11T13:18:00;16.20;;;11.25;;
55268;SDS011;41131;42.990;21.954;2023-03-11T13:25:38;17.52;;;9.70;;
55268;SDS011;41131;42.990;21.954;2023-03-11T13:41:49;16.23;;;9.52;;
55268;SDS011;41131;42.990;21.954;2023-03-11T13:46:44;31.10;;;21.27;;
55268;SDS011;41131;42.990;21.954;2023-03-11T13:49:24;18.20;;;9.48;;
55268;SDS011;41131;42.990;21.954;2023-03-11T13:51:52;19.60;;;11.40;;
55268;SDS011;41131;42.990;21.954;2023-03-11T13:54:27;18.13;;;12.63;;
55268;SDS011;41131;42.990;21.954;2023-03-11T13:56:58;21.33;;;11.77;;
55268;SDS011;41131;42.990;21.954;2023-03-11T13:59:27;19.00;;;10.05;;
55268;SDS011;41131;42.990;21.954;2023-03-11T14:02:00;22.35;;;10.65;;
55268;SDS011;41131;42.990;21.954;2023-03-11T14:04:29;28.52;;;21.33;;
55268;SDS011;41131;42.990;21.954;2023-03-11T14:06:56;10.88;;;6.68;;
55268;SDS011;41131;42.990;21.954;2023-03-11T14:09:23;22.48;;;15.55;;
55268;SDS011;41131;42.990;21.954;2023-03-11T14:11:51;19.85;;;14.65;;
55268;SDS011;41131;42.990;21.954;2023-03-11T14:14:23;19.20;;;12.07;;
55268;SDS011;41131;42.990;21.954;2023-03-11T14:16:52;26.90;;;14.70;;
55268;SDS011;41131;42.990;21.954;2023-03-11T14:19:18;11.13;;;7.53;;
55268;SDS011;41131;42.990;21.954;2023-03-11T14:21:45;28.65;;;18.58;;
55268;SDS011;41131;42.990;21.954;2023-03-11T14:24:24;22.63;;;12.10;;
55268;SDS011;41131;42.990;21.954;2023-03-11T14:26:52;30.20;;;17.23;;
55268;SDS011;41131;42.990;21.954;2023-03-11T14:29:20;18.23;;;12.70;;
55268;SDS011;41131;42.990;21.954;2023-03-11T14:31:49;23.40;;;14.80;;
55268;SDS011;41131;42.990;21.954;2023-03-11T14:34:16;16.67;;;8.43;;
55268;SDS011;41131;42.990;21.954;2023-03-11T14:36:59;21.58;;;15.88;;
55268;SDS011;41131;42.990;21.954;2023-03-11T14:44:22;17.73;;;12.77;;
55268;SDS011;41131;42.990;21.954;2023-03-11T14:46:49;15.20;;;9.80;;
55268;SDS011;41131;42.990;21.954;2023-03-11T14:49:17;17.13;;;12.65;;
55268;SDS011;41131;42.990;21.954;2023-03-11T14:51:44;15.23;;;11.90;;
55268;SDS011;41131;42.990;21.954;2023-03-11T14:54:15;16.23;;;11.93;;
55268;SDS011;41131;42.990;21.954;2023-03-11T14:56:43;28.52;;;19.63;;
55268;SDS011;41131;42.990;21.954;2023-03-11T14:59:15;28.85;;;17.83;;
55268;SDS011;41131;42.990;21.954;2023-03-11T15:01:45;18.05;;;11.73;;
55268;SDS011;41131;42.990;21.954;2023-03-11T15:04:12;30.95;;;21.77;;
55268;SDS011;41131;42.990;21.954;2023-03-11T15:06:43;15.85;;;12.13;;
55268;SDS011;41131;42.990;21.954;2023-03-11T15:09:14;41.45;;;28.10;;
55268;SDS011;41131;42.990;21.954;2023-03-11T15:11:46;17.10;;;12.63;;
55268;SDS011;41131;42.990;21.954;2023-03-11T15:14:23;31.25;;;19.17;;
55268;SDS011;41131;42.990;21.954;2023-03-11T15:16:50;31.80;;;18.27;;
55268;SDS011;41131;42.990;21.954;2023-03-11T15:21:46;19.25;;;11.70;;
55268;SDS011;41131;42.990;21.954;2023-03-11T15:24:22;97.05;;;68.90;;
55268;SDS011;41131;42.990;21.954;2023-03-11T15:27:02;45.53;;;33.47;;
55268;SDS011;41131;42.990;21.954;2023-03-11T15:29:29;58.22;;;43.10;;
55268;SDS011;41131;42.990;21.954;2023-03-11T15:31:55;30.58;;;22.98;;
55268;SDS011;41131;42.990;21.954;2023-03-11T15:34:24;66.50;;;47.85;;
55268;SDS011;41131;42.990;21.954;2023-03-11T15:44:34;30.15;;;20.02;;
55268;SDS011;41131;42.990;21.954;2023-03-11T15:47:01;34.13;;;25.08;;
55268;SDS011;41131;42.990;21.954;2023-03-11T15:49:27;35.13;;;25.13;;
55268;SDS011;41131;42.990;21.954;2023-03-11T15:52:00;46.67;;;33.55;;
55268;SDS011;41131;42.990;21.954;2023-03-11T15:54:26;139.63;;;98.97;;
55268;SDS011;41131;42.990;21.954;2023-03-11T15:56:53;63.47;;;44.78;;
55268;SDS011;41131;42.990;21.954;2023-03-11T15:59:20;46.30;;;26.25;;
55268;SDS011;41131;42.990;21.954;2023-03-11T16:01:46;48.97;;;30.83;;
55268;SDS011;41131;42.990;21.954;2023-03-11T16:04:13;43.53;;;28.40;;
55268;SDS011;41131;42.990;21.954;2023-03-11T16:06:40;32.88;;;22.50;;
55268;SDS011;41131;42.990;21.954;2023-03-11T16:09:06;61.70;;;42.47;;
55268;SDS011;41131;42.990;21.954;2023-03-11T16:11:32;83.95;;;56.83;;
55268;SDS011;41131;42.990;21.954;2023-03-11T16:13:59;206.90;;;114.97;;